Time;durP1;ratioP1;P1;durP2;ratioP2;P2;SDS_P1;SDS_P2;PMS_P1;PMS_P2;Temp;Humidity;BMP_temperature;BMP_pressure;BME280_temperature;BME280_humidity;BME280_pressure;Samples;Min_cycle;Max_cycle;Signal;HPM_P1;HPM_P2
2022/09/26 00:02:03;;;;;;;0.10;0.10;;;;;;;8.42;100.00;100678.19;10438712;28;20037;-71
2022/09/26 00:07:04;;;;;;;0.00;0.00;;;;;;;8.45;100.00;100667.28;10432903;28;20078;-71
2022/09/26 00:12:04;;;;;;;0.10;0.10;;;;;;;8.46;100.00;100655.66;10424837;28;20029;-71
2022/09/26 00:17:04;;;;;;;0.00;0.00;;;;;;;8.46;100.00;100637.91;10426294;28;20025;-71
2022/09/26 00:22:05;;;;;;;0.00;0.00;;;;;;;8.48;100.00;100629.81;10446177;28;20468;-71
2022/09/26 00:27:05;;;;;;;0.00;0.00;;;;;;;8.46;100.00;100626.47;10437788;28;20028;-71
2022/09/26 00:32:05;;;;;;;0.00;0.00;;;;;;;8.46;100.00;100611.38;10429376;28;20096;-71
2022/09/26 00:37:05;;;;;;;0.00;0.00;;;;;;;8.47;100.00;100609.59;10432922;28;20025;-70
2022/09/26 00:42:08;;;;;;;0.00;0.00;;;;;;;8.49;100.00;100611.06;10430345;28;20013;-70
2022/09/26 00:47:20;;;;;;;0.10;0.10;;;;;;;8.50;100.00;100606.63;10437015;28;20476;-70
2022/09/26 00:52:26;;;;;;;0.00;0.00;;;;;;;8.52;100.00;100599.31;10431231;28;20029;-70
2022/09/26 00:57:34;;;;;;;0.00;0.00;;;;;;;8.51;100.00;100601.16;10435483;28;20024;-70
2022/09/26 01:02:35;;;;;;;0.00;0.00;;;;;;;8.51;100.00;100587.88;10439689;28;20025;-70
2022/09/26 01:07:36;;;;;;;0.00;0.00;;;;;;;8.49;100.00;100578.38;10446703;28;20021;-70
2022/09/26 01:12:37;;;;;;;0.10;0.10;;;;;;;8.47;100.00;100562.63;10426239;28;20036;-70
2022/09/26 01:17:40;;;;;;;0.10;0.10;;;;;;;8.47;100.00;100557.31;10432098;28;20022;-71
2022/09/26 01:22:49;;;;;;;0.00;0.00;;;;;;;8.49;100.00;100542.06;10416913;28;20032;-70
2022/09/26 01:28:17;;;;;;;0.05;0.05;;;;;;;8.48;100.00;100545.72;10432692;28;20043;-70
2022/09/26 01:33:29;;;;;;;0.00;0.00;;;;;;;8.46;100.00;100534.41;10418694;28;20037;-70
2022/09/26 01:38:55;;;;;;;0.05;0.05;;;;;;;8.47;100.00;100533.44;10434715;28;20025;-70
2022/09/26 01:44:29;;;;;;;0.00;0.00;;;;;;;8.49;100.00;100523.47;10424373;28;20064;-70
2022/09/26 01:49:34;;;;;;;0.00;0.00;;;;;;;8.50;100.00;100517.19;10430542;28;20116;-70
2022/09/26 01:54:48;;;;;;;0.00;0.00;;;;;;;8.51;100.00;100508.22;10428425;28;20140;-70
2022/09/26 01:59:54;;;;;;;0.00;0.00;;;;;;;8.53;100.00;100508.09;10430443;28;20028;-70
2022/09/26 02:05:01;;;;;;;0.00;0.00;;;;;;;8.54;100.00;100497.31;10436030;28;20026;-71
2022/09/26 02:10:08;;;;;;;0.10;0.10;;;;;;;8.53;100.00;100493.00;10433383;28;20044;-71
2022/09/26 02:15:13;;;;;;;0.00;0.00;;;;;;;8.53;100.00;100479.72;10437524;28;20078;-71
2022/09/26 02:20:28;;;;;;;0.00;0.00;;;;;;;8.53;100.00;100471.75;10435368;28;20013;-71
2022/09/26 02:25:29;;;;;;;0.00;0.00;;;;;;;8.53;100.00;100455.84;10441270;28;20497;-71
2022/09/26 02:30:30;;;;;;;0.00;0.00;;;;;;;8.55;100.00;100447.69;10435644;28;20064;-71
2022/09/26 02:41:06;;;;;;;0.00;0.00;;;;;;;8.62;100.00;100432.84;10446369;28;20029;-70
2022/09/26 02:46:38;;;;;;;0.00;0.00;;;;;;;8.66;100.00;100420.91;10435016;28;20035;-70
2022/09/26 02:51:58;;;;;;;0.00;0.00;;;;;;;8.70;100.00;100402.84;10423523;28;20074;-70
2022/09/26 02:57:22;;;;;;;0.10;0.10;;;;;;;8.76;100.00;100402.22;10432133;28;20025;-71
2022/09/26 03:02:35;;;;;;;0.10;0.10;;;;;;;8.77;100.00;100378.16;10427606;28;20022;-71
2022/09/26 03:07:42;;;;;;;0.00;0.00;;;;;;;8.77;100.00;100369.34;10426411;28;20024;-71
2022/09/26 03:12:43;;;;;;;0.00;0.00;;;;;;;8.77;100.00;100364.88;10426809;28;20029;-71
2022/09/26 03:17:51;;;;;;;0.00;0.00;;;;;;;8.76;100.00;100357.06;10429538;28;20017;-71
2022/09/26 03:22:51;;;;;;;0.10;0.10;;;;;;;8.76;100.00;100357.91;10421118;28;20308;-71
2022/09/26 03:27:52;;;;;;;0.00;0.00;;;;;;;8.76;100.00;100346.44;10430124;28;20025;-70
2022/09/26 03:32:53;;;;;;;0.00;0.00;;;;;;;8.76;100.00;100339.31;10436347;28;20021;-71
2022/09/26 03:37:53;;;;;;;0.00;0.00;;;;;;;8.78;100.00;100337.31;10408145;22;20047;-70
2022/09/26 03:42:53;;;;;;;0.00;0.00;;;;;;;8.81;100.00;100328.19;10360417;28;20022;-70
2022/09/26 03:47:57;;;;;;;0.10;0.10;;;;;;;8.83;100.00;100318.25;10369668;28;20164;-70
2022/09/26 03:52:57;;;;;;;0.10;0.10;;;;;;;8.86;100.00;100315.28;10350561;28;20026;-70
2022/09/26 03:58:01;;;;;;;0.00;0.00;;;;;;;8.87;100.00;100308.97;10361196;28;20022;-70
2022/09/26 04:03:02;;;;;;;0.00;0.00;;;;;;;8.90;100.00;100297.19;10322905;28;20404;-70
2022/09/26 04:08:02;;;;;;;0.00;0.00;;;;;;;8.92;100.00;100290.72;10356060;28;20021;-70
2022/09/26 04:13:03;;;;;;;0.00;0.00;;;;;;;8.97;100.00;100288.44;10342255;28;20029;-70
2022/09/26 04:18:03;;;;;;;0.08;0.08;;;;;;;9.01;100.00;100276.47;10354671;28;20073;-70
2022/09/26 04:23:04;;;;;;;0.10;0.10;;;;;;;9.07;100.00;100264.38;10337881;28;20358;-70
2022/09/26 04:28:04;;;;;;;0.00;0.00;;;;;;;9.12;100.00;100266.53;10360231;28;20027;-70
2022/09/26 04:33:05;;;;;;;0.03;0.03;;;;;;;9.12;100.00;100261.22;10338314;28;20018;-71
2022/09/26 04:38:07;;;;;;;0.10;0.10;;;;;;;9.12;100.00;100254.09;10349557;28;20113;-70
2022/09/26 04:43:07;;;;;;;0.00;0.00;;;;;;;9.12;100.00;100250.59;10341370;28;20045;-70
2022/09/26 04:48:09;;;;;;;0.10;0.10;;;;;;;9.13;100.00;100238.97;10346119;28;20018;-70
2022/09/26 04:53:10;;;;;;;0.10;0.10;;;;;;;9.14;100.00;100235.34;10354218;28;20030;-70
2022/09/26 04:58:12;;;;;;;0.05;0.05;;;;;;;9.16;100.00;100225.34;10348316;28;20363;-70
2022/09/26 05:03:13;;;;;;;0.05;0.05;;;;;;;9.16;100.00;100228.00;10341370;28;20029;-70
2022/09/26 05:08:13;;;;;;;0.10;0.10;;;;;;;9.17;100.00;100217.22;10343156;28;20057;-71
2022/09/26 05:13:14;;;;;;;0.10;0.10;;;;;;;9.20;100.00;100208.09;10347781;28;20110;-70
2022/09/26 05:18:14;;;;;;;0.10;0.10;;;;;;;9.22;100.00;100206.09;10346689;28;20029;-70
2022/09/26 05:28:35;;;;;;;0.00;0.00;;;;;;;9.28;100.00;100198.31;10343929;28;20113;-70
2022/09/26 05:33:37;;;;;;;0.00;0.00;;;;;;;9.34;100.00;100203.94;10352281;28;20025;-70
2022/09/26 05:38:37;;;;;;;0.03;0.03;;;;;;;9.38;100.00;100203.44;10337832;28;20393;-71
2022/09/26 05:43:38;;;;;;;0.00;0.00;;;;;;;9.43;100.00;100203.78;10346773;28;20022;-70
2022/09/26 05:48:39;;;;;;;0.10;0.10;;;;;;;9.48;100.00;100197.94;10339801;28;20029;-70
2022/09/26 05:53:45;;;;;;;0.00;0.00;;;;;;;9.52;100.00;100208.09;10348412;28;20389;-70
2022/09/26 05:58:45;;;;;;;0.00;0.00;;;;;;;9.52;100.00;100196.63;10347470;28;20014;-71
2022/09/26 06:03:46;;;;;;;0.00;0.00;;;;;;;9.50;100.00;100199.44;10351973;28;20026;-70
2022/09/26 06:08:47;;;;;;;0.03;0.03;;;;;;;9.49;100.00;100200.47;10343860;28;20083;-71
2022/09/26 06:13:47;;;;;;;0.00;0.00;;;;;;;9.49;100.00;100191.66;10342000;28;20049;-71
2022/09/26 06:18:49;;;;;;;0.10;0.10;;;;;;;9.52;100.00;100173.53;10347121;28;20157;-71
2022/09/26 06:23:50;;;;;;;0.10;0.10;;;;;;;9.56;100.00;100167.88;10350008;28;20741;-71
2022/09/26 06:28:58;;;;;;;0.03;0.03;;;;;;;9.62;100.00;100161.88;10338638;28;20030;-71
2022/09/26 06:34:00;;;;;;;0.00;0.00;;;;;;;9.68;100.00;100158.53;10340901;28;20029;-71
2022/09/26 06:39:00;;;;;;;0.10;0.10;;;;;;;9.76;100.00;100142.56;10339242;28;20036;-70
2022/09/26 06:44:03;;;;;;;0.03;0.03;;;;;;;9.86;100.00;100142.38;10354704;28;20028;-71
2022/09/26 06:49:05;;;;;;;0.00;0.00;;;;;;;9.96;100.00;100133.19;10330602;28;20488;-71
2022/09/26 06:54:06;;;;;;;0.00;0.00;;;;;;;10.09;100.00;100127.31;10352834;28;20034;-71
2022/09/26 06:59:07;;;;;;;0.03;0.03;;;;;;;10.17;100.00;100129.13;10339095;28;20022;-71
2022/09/26 07:04:07;;;;;;;0.10;0.10;;;;;;;10.22;100.00;100128.59;10334574;28;20045;-71
2022/09/26 07:09:08;;;;;;;0.08;0.08;;;;;;;10.25;100.00;100120.28;10345994;28;20044;-71
2022/09/26 07:14:09;;;;;;;0.00;0.00;;;;;;;10.26;100.00;100108.63;10331446;28;20018;-71
2022/09/26 07:19:11;;;;;;;0.10;0.10;;;;;;;10.31;100.00;100109.78;10351271;28;20536;-71
2022/09/26 07:24:13;;;;;;;0.10;0.10;;;;;;;10.41;100.00;100102.41;10344543;28;20396;-71
2022/09/26 07:29:13;;;;;;;0.10;0.10;;;;;;;10.53;100.00;100097.50;10324357;28;20026;-70
2022/09/26 07:34:13;;;;;;;0.10;0.10;;;;;;;10.65;100.00;100088.09;10349533;28;20257;-71
2022/09/26 07:39:14;;;;;;;0.03;0.03;;;;;;;10.76;100.00;100086.00;10327099;28;20022;-70
2022/09/26 07:44:14;;;;;;;0.10;0.10;;;;;;;10.84;100.00;100078.78;10340030;28;20030;-70
2022/09/26 07:54:34;;;;;;;0.00;0.00;;;;;;;11.02;100.00;100080.31;10351282;28;20022;-71
2022/09/26 07:59:35;;;;;;;0.10;0.10;;;;;;;11.14;100.00;100080.69;10346795;28;20662;-71
2022/09/26 08:04:35;;;;;;;0.10;0.10;;;;;;;11.26;100.00;100080.09;10338815;28;20030;-71
2022/09/26 08:09:36;;;;;;;0.08;0.08;;;;;;;11.37;100.00;100072.66;10353614;28;20018;-70
2022/09/26 08:14:36;;;;;;;0.10;0.10;;;;;;;11.41;100.00;100076.63;10338553;28;20022;-69
2022/09/26 08:19:36;;;;;;;0.00;0.00;;;;;;;11.50;100.00;100070.19;10341590;28;20014;-69
2022/09/26 08:24:40;;;;;;;0.10;0.10;;;;;;;11.60;100.00;100072.56;10335676;28;20367;-70
2022/09/26 08:29:41;;;;;;;0.03;0.03;;;;;;;11.58;100.00;100064.75;10347963;28;20026;-69
2022/09/26 08:34:41;;;;;;;0.10;0.10;;;;;;;11.53;100.00;100067.16;10368623;28;20026;-69
2022/09/26 08:39:42;;;;;;;0.10;0.10;;;;;;;11.48;100.00;100057.00;10341644;28;20120;-70
2022/09/26 08:46:12;;;;;;;0.00;0.00;;;;;;;11.44;100.00;100060.25;10351478;28;20018;-69
2022/09/26 08:50:38;;;;;;;0.10;0.10;;;;;;;11.47;100.00;100051.88;10358661;28;20112;-70
2022/09/26 08:55:43;;;;;;;0.10;0.10;;;;;;;11.52;100.00;100052.16;10344475;28;20014;-69
2022/09/26 09:00:45;;;;;;;0.10;0.10;;;;;;;11.71;100.00;100050.75;10344666;28;20033;-70
2022/09/26 09:05:50;;;;;;;0.10;0.10;;;;;;;11.96;100.00;100040.66;10339541;28;20044;-70
2022/09/26 09:11:20;;;;;;;0.00;0.00;;;;;;;12.29;100.00;100041.00;10341480;28;20030;-70
2022/09/26 09:16:52;;;;;;;0.00;0.00;;;;;;;12.67;100.00;100025.53;10339299;28;20053;-71
2022/09/26 09:22:25;;;;;;;0.00;0.00;;;;;;;13.05;100.00;100030.56;10339870;28;20042;-70
2022/09/26 09:27:47;;;;;;;0.08;0.08;;;;;;;13.43;100.00;100016.84;10339807;28;20026;-70
2022/09/26 09:33:18;;;;;;;0.05;0.05;;;;;;;13.59;100.00;100005.84;10345155;28;20030;-70
2022/09/26 09:38:21;;;;;;;0.00;0.00;;;;;;;13.67;100.00;100004.84;10412818;23;20044;-71
2022/09/26 09:43:31;;;;;;;0.10;0.10;;;;;;;13.76;100.00;100003.66;10410511;28;20091;-72
2022/09/26 09:48:32;;;;;;;0.10;0.10;;;;;;;13.76;100.00;99990.28;10410786;28;20339;-72
2022/09/26 09:53:42;;;;;;;0.10;0.10;;;;;;;13.57;100.00;99997.19;10409395;28;20472;-72
2022/09/26 09:59:13;;;;;;;0.00;0.00;;;;;;;13.53;100.00;99990.59;10427934;28;20028;-72
2022/09/26 10:04:38;;;;;;;0.10;0.10;;;;;;;13.50;100.00;99979.47;10412871;28;20022;-72
2022/09/26 10:09:42;;;;;;;0.05;0.05;;;;;;;13.42;100.00;99960.91;10408767;28;20044;-71
2022/09/26 10:14:42;;;;;;;;;;;;;;;13.40;100.00;99961.09;10431373;28;20029;-71
2022/09/26 10:19:43;;;;;;;0.10;0.10;;;;;;;13.42;100.00;99961.72;10417091;28;19908;-71
2022/09/26 10:24:46;;;;;;;0.10;0.10;;;;;;;13.40;100.00;99953.06;10410685;28;20567;-71
2022/09/26 10:29:58;;;;;;;0.10;0.10;;;;;;;13.50;100.00;99939.34;10424603;28;20017;-71
2022/09/26 10:35:06;;;;;;;0.10;0.10;;;;;;;13.52;100.00;99923.88;10410248;28;20564;-71
2022/09/26 10:40:45;;;;;;;0.10;0.10;;;;;;;13.50;100.00;99942.81;10423131;28;20496;-71
2022/09/26 10:45:53;;;;;;;0.10;0.10;;;;;;;13.55;100.00;99926.97;10408063;28;20048;-71
2022/09/26 10:50:59;;;;;;;0.00;0.00;;;;;;;13.56;100.00;99923.28;10408752;28;20026;-71
2022/09/26 10:56:05;;;;;;;0.10;0.10;;;;;;;13.34;100.00;99916.41;10408640;28;20384;-71
2022/09/26 11:01:15;;;;;;;0.10;0.10;;;;;;;13.19;100.00;99915.69;10405757;28;20108;-71
2022/09/26 11:06:25;;;;;;;0.10;0.10;;;;;;;13.05;100.00;99907.59;10408524;28;20021;-71
2022/09/26 11:11:26;;;;;;;0.10;0.10;;;;;;;13.05;100.00;99902.25;10392844;28;20051;-71
2022/09/26 11:16:27;;;;;;;0.10;0.10;;;;;;;12.94;100.00;99894.78;10425065;28;20014;-71
2022/09/26 11:21:46;;;;;;;0.10;0.10;;;;;;;12.58;100.00;99887.78;10414045;28;20029;-71
2022/09/26 11:27:23;;;;;;;0.03;0.03;;;;;;;12.40;100.00;99874.94;10420652;28;20492;-71
2022/09/26 11:32:29;;;;;;;0.10;0.10;;;;;;;12.38;100.00;99871.63;10406222;28;20052;-71
2022/09/26 11:37:38;;;;;;;0.10;0.10;;;;;;;12.45;100.00;99866.34;10420795;28;20025;-71
2022/09/26 11:43:01;;;;;;;0.10;0.10;;;;;;;12.68;100.00;99845.53;10411365;28;20087;-71
2022/09/26 11:48:11;;;;;;;0.10;0.10;;;;;;;12.72;100.00;99863.84;10416345;28;20028;-70
2022/09/26 11:53:28;;;;;;;0.10;0.10;;;;;;;12.74;100.00;99843.06;10405466;28;20083;-71
2022/09/26 11:58:38;;;;;;;0.00;0.00;;;;;;;12.67;100.00;99841.19;10420932;28;20021;-71
2022/09/26 12:03:45;;;;;;;0.10;0.10;;;;;;;12.67;100.00;99835.84;10443539;28;20498;-71
2022/09/26 12:09:01;;;;;;;0.10;0.10;;;;;;;12.48;100.00;99828.56;10411704;28;20384;-71
2022/09/26 12:14:16;;;;;;;0.10;0.10;;;;;;;12.24;100.00;99832.47;10408515;28;20402;-72
2022/09/26 12:20:05;;;;;;;0.10;0.10;;;;;;;12.09;100.00;99829.09;10413422;28;20029;-71
2022/09/26 12:25:09;;;;;;;0.10;0.10;;;;;;;11.93;100.00;99833.69;10404179;28;20048;-72
2022/09/26 12:30:14;;;;;;;0.10;0.10;;;;;;;11.90;100.00;99826.06;10413462;28;20075;-71
2022/09/26 12:35:27;;;;;;;0.00;0.00;;;;;;;12.02;100.00;99807.69;10418127;28;20017;-72
2022/09/26 12:40:28;;;;;;;0.08;0.08;;;;;;;12.12;100.00;99794.81;10413401;28;20033;-72
2022/09/26 12:45:55;;;;;;;0.10;0.10;;;;;;;12.13;100.00;99795.63;10406593;28;20021;-72
2022/09/26 12:51:02;;;;;;;0.10;0.10;;;;;;;12.10;100.00;99796.03;10416109;28;20480;-71
2022/09/26 12:56:21;;;;;;;0.10;0.10;;;;;;;12.18;100.00;99782.53;10409331;28;20017;-71
2022/09/26 13:01:52;;;;;;;0.10;0.10;;;;;;;12.20;100.00;99789.34;10410844;28;20025;-71
2022/09/26 13:07:02;;;;;;;0.10;0.10;;;;;;;12.15;100.00;99781.06;10412824;28;20053;-71
2022/09/26 13:12:25;;;;;;;0.10;0.10;;;;;;;12.07;100.00;99770.56;10412950;28;20025;-71
2022/09/26 13:17:33;;;;;;;0.10;0.10;;;;;;;12.07;100.00;99772.41;10403810;28;21486;-71
2022/09/26 13:22:44;;;;;;;0.10;0.10;;;;;;;11.99;100.00;99762.72;10415598;28;20021;-71
2022/09/26 13:27:56;;;;;;;0.10;0.10;;;;;;;11.87;100.00;99753.56;10412708;28;20087;-71
2022/09/26 13:33:19;;;;;;;0.10;0.10;;;;;;;11.74;100.00;99756.94;10409278;28;20056;-71
2022/09/26 13:38:32;;;;;;;0.10;0.10;;;;;;;11.67;100.00;99735.53;10409600;28;20017;-72
2022/09/26 13:43:57;;;;;;;0.00;0.00;;;;;;;11.58;100.00;99752.72;10407767;28;20480;-71
2022/09/26 13:49:18;;;;;;;0.10;0.10;;;;;;;11.48;100.00;99741.53;10404963;28;20033;-73
2022/09/26 13:54:26;;;;;;;0.10;0.10;;;;;;;11.44;100.00;99737.59;10409034;28;20033;-70
2022/09/26 13:59:50;;;;;;;0.10;0.10;;;;;;;11.38;100.00;99735.69;10411257;28;20037;-73
2022/09/26 14:04:51;;;;;;;;;;;;;;;11.30;100.00;99712.66;10414271;28;20021;-70
2022/09/26 14:10:06;;;;;;;0.03;0.03;;;;;;;11.28;100.00;99723.50;10410953;28;19912;-71
2022/09/26 14:15:23;;;;;;;0.10;0.10;;;;;;;11.21;100.00;99716.47;10398398;28;20113;-72
2022/09/26 14:20:26;;;;;;;0.10;0.10;;;;;;;11.21;100.00;99711.94;10411181;28;20546;-70
2022/09/26 14:25:45;;;;;;;0.00;0.00;;;;;;;11.26;100.00;99706.88;10408785;28;20017;-71
2022/09/26 14:31:11;;;;;;;0.10;0.10;;;;;;;11.27;100.00;99678.38;10409308;28;20030;-71
2022/09/26 14:36:26;;;;;;;0.10;0.10;;;;;;;11.15;100.00;99672.75;10410590;28;20182;-71
2022/09/26 14:41:31;;;;;;;0.00;0.00;;;;;;;11.09;100.00;99670.84;10407853;28;20037;-70
2022/09/26 14:46:34;;;;;;;0.10;0.10;;;;;;;11.01;100.00;99652.31;10404529;28;20344;-71
2022/09/26 14:51:37;;;;;;;0.00;0.00;;;;;;;10.98;100.00;99642.03;10425258;28;20018;-72
2022/09/26 14:56:45;;;;;;;0.07;0.07;;;;;;;10.97;100.00;99629.75;10409630;28;20060;-71
2022/09/26 15:01:45;;;;;;;0.08;0.08;;;;;;;10.88;100.00;99629.03;10407331;28;20052;-72
2022/09/26 15:06:50;;;;;;;0.10;0.10;;;;;;;10.82;100.00;99624.44;10408751;28;20037;-72
2022/09/26 15:11:57;;;;;;;0.00;0.00;;;;;;;10.74;100.00;99628.06;10407947;28;20028;-71
2022/09/26 15:17:00;;;;;;;0.10;0.10;;;;;;;10.65;100.00;99611.41;10428408;28;20044;-72
2022/09/26 15:22:13;;;;;;;0.10;0.10;;;;;;;10.61;100.00;99617.28;10447543;28;20031;-72
2022/09/26 15:27:27;;;;;;;0.10;0.10;;;;;;;10.55;100.00;99602.88;10411798;28;20112;-71
2022/09/26 15:32:31;;;;;;;0.10;0.10;;;;;;;10.49;100.00;99606.28;10421767;28;20025;-71
2022/09/26 15:37:34;;;;;;;0.10;0.10;;;;;;;10.43;100.00;99591.91;10442921;22;20056;-87
2022/09/26 15:48:04;;;;;;;0.10;0.10;;;;;;;10.43;100.00;99575.94;10467403;28;20025;-88
2022/09/26 15:53:16;;;;;;;0.00;0.00;;;;;;;10.43;100.00;99575.94;10455477;28;20017;-87
2022/09/26 15:58:24;;;;;;;0.10;0.10;;;;;;;10.41;100.00;99556.69;10444023;28;20093;-89
2022/09/26 16:03:24;;;;;;;0.10;0.10;;;;;;;10.39;100.00;99560.53;10449907;28;20374;-88
2022/09/26 16:08:35;;;;;;;0.00;0.00;;;;;;;10.37;100.00;99552.72;10449949;28;20095;-89
2022/09/26 16:13:41;;;;;;;0.00;0.00;;;;;;;10.34;100.00;99539.78;10437701;28;20087;-88
2022/09/26 16:18:54;;;;;;;0.00;0.00;;;;;;;10.39;100.00;99547.22;10453246;28;20796;-88
2022/09/26 16:23:58;;;;;;;0.10;0.10;;;;;;;10.39;100.00;99539.25;10445225;28;20496;-87
2022/09/26 16:28:59;;;;;;;0.03;0.03;;;;;;;10.37;100.00;99527.94;10449030;28;20036;-88
2022/09/26 16:34:00;;;;;;;0.10;0.10;;;;;;;10.35;100.00;99520.16;10450607;28;20036;-88
2022/09/26 16:39:18;;;;;;;0.00;0.00;;;;;;;10.36;100.00;99523.66;10444935;28;20043;-88
2022/09/26 16:44:22;;;;;;;0.10;0.10;;;;;;;10.33;100.00;99516.06;10438930;28;20017;-88
2022/09/26 16:49:30;;;;;;;0.08;0.08;;;;;;;10.32;100.00;99509.06;10447050;28;20032;-87
2022/09/26 16:54:31;;;;;;;0.10;0.10;;;;;;;10.28;100.00;99502.47;10435279;28;20053;-88
2022/09/26 16:59:32;;;;;;;0.10;0.10;;;;;;;10.28;100.00;99503.28;10440393;28;20017;-90
2022/09/26 17:04:34;;;;;;;0.10;0.10;;;;;;;10.27;100.00;99506.97;10439951;28;20032;-88
2022/09/26 17:09:35;;;;;;;0.00;0.00;;;;;;;10.27;100.00;99496.34;10440881;28;20382;-88
2022/09/26 17:14:39;;;;;;;0.10;0.10;;;;;;;10.26;100.00;99494.63;10432951;28;20017;-89
2022/09/26 17:19:40;;;;;;;0.10;0.10;;;;;;;10.20;100.00;99482.91;10438584;28;20052;-89
2022/09/26 17:24:41;;;;;;;0.10;0.10;;;;;;;10.28;100.00;99482.00;10439874;28;20028;-89
2022/09/26 17:29:47;;;;;;;0.00;0.00;;;;;;;10.30;100.00;99492.47;10437413;28;20021;-88
2022/09/26 17:34:52;;;;;;;0.00;0.00;;;;;;;10.27;100.00;99491.00;10442463;28;20017;-89
2022/09/26 17:39:54;;;;;;;0.10;0.10;;;;;;;10.24;100.00;99480.72;10443014;28;20087;-88
2022/09/26 17:44:54;;;;;;;0.10;0.10;;;;;;;10.31;100.00;99473.63;10434668;28;20029;-89
2022/09/26 17:49:56;;;;;;;0.10;0.10;;;;;;;10.28;100.00;99475.88;10440688;28;20074;-88
2022/09/26 17:55:01;;;;;;;0.10;0.10;;;;;;;10.18;100.00;99458.34;10437175;28;20497;-88
2022/09/26 18:00:05;;;;;;;0.10;0.10;;;;;;;10.25;100.00;99466.38;10437962;28;20036;-88
2022/09/26 18:05:20;;;;;;;0.10;0.10;;;;;;;10.25;100.00;99458.41;10435635;28;20025;-89
2022/09/26 18:10:29;;;;;;;0.00;0.00;;;;;;;10.29;100.00;99459.69;10439626;28;20028;-89
2022/09/26 18:15:29;;;;;;;0.10;0.10;;;;;;;10.32;100.00;99453.97;10435047;28;20017;-87
2022/09/26 18:20:36;;;;;;;0.10;0.10;;;;;;;10.30;100.00;99447.22;10435345;28;20017;-89
2022/09/26 18:32:08;;;;;;;0.10;0.10;;;;;;;10.19;100.00;99433.38;10451330;28;20119;-92
2022/09/26 18:37:08;;;;;;;0.10;0.10;;;;;;;10.34;100.00;99448.47;10449991;22;21308;-70
2022/09/26 18:42:13;;;;;;;0.10;0.10;;;;;;;10.35;100.00;99450.13;10391079;28;20424;-70
2022/09/26 18:47:15;;;;;;;0.10;0.10;;;;;;;10.36;100.00;99444.63;10365985;28;20105;-70
2022/09/26 18:52:17;;;;;;;0.00;0.00;;;;;;;10.36;100.00;99441.13;10359822;28;20053;-71
2022/09/26 19:02:37;;;;;;;0.00;0.00;;;;;;;10.36;100.00;99438.47;10365114;28;20477;-69
2022/09/26 19:07:39;;;;;;;0.10;0.10;;;;;;;10.36;100.00;99439.28;10365887;28;20025;-71
2022/09/26 19:12:39;;;;;;;0.00;0.00;;;;;;;10.34;100.00;99441.31;10347817;28;20049;-70
2022/09/26 19:17:40;;;;;;;0.00;0.00;;;;;;;10.34;100.00;99443.16;10345270;28;20294;-71
2022/09/26 19:22:40;;;;;;;0.10;0.10;;;;;;;10.33;100.00;99437.03;10365627;28;20504;-71
2022/09/26 19:27:50;;;;;;;0.10;0.10;;;;;;;10.31;100.00;99428.41;10365297;28;20072;-71
2022/09/26 19:32:54;;;;;;;0.05;0.05;;;;;;;10.32;100.00;99430.03;10363479;28;20477;-70
2022/09/26 19:37:55;;;;;;;0.03;0.03;;;;;;;10.32;100.00;99430.03;10365339;28;20104;-70
2022/09/26 19:42:56;;;;;;;0.00;0.00;;;;;;;10.32;100.00;99423.88;10345103;28;20112;-70
2022/09/26 19:47:57;;;;;;;0.10;0.10;;;;;;;10.32;100.00;99418.56;10364458;28;20614;-71
2022/09/26 19:52:57;;;;;;;0.00;0.00;;;;;;;10.31;100.00;99412.44;10364860;28;20181;-70
2022/09/26 19:58:32;;;;;;;0.00;0.00;;;;;;;10.30;100.00;99418.78;10365206;28;20185;-70
2022/09/26 20:03:38;;;;;;;0.10;0.10;;;;;;;10.30;100.00;99405.47;10363804;28;20133;-70
2022/09/26 20:08:39;;;;;;;0.10;0.10;;;;;;;10.30;100.00;99404.66;10364991;28;20396;-70
2022/09/26 20:18:59;;;;;;;0.10;0.10;;;;;;;10.28;100.00;99390.69;10371552;28;20026;-71
2022/09/26 20:24:00;;;;;;;0.10;0.10;;;;;;;10.29;100.00;99400.31;10372137;28;20021;-70
2022/09/26 20:29:00;;;;;;;0.05;0.05;;;;;;;10.27;100.00;99392.53;10372011;28;20041;-71
2022/09/26 20:34:00;;;;;;;0.05;0.05;;;;;;;10.26;100.00;99388.19;10353512;28;20029;-71
2022/09/26 20:39:05;;;;;;;0.00;0.00;;;;;;;10.24;100.00;99390.25;10354391;28;20508;-71
2022/09/26 20:44:23;;;;;;;0.10;0.10;;;;;;;10.23;100.00;99385.91;10371310;28;20701;-71
2022/09/26 20:49:36;;;;;;;0.10;0.10;;;;;;;10.23;100.00;99367.28;10354033;28;20089;-71
2022/09/26 20:54:36;;;;;;;0.10;0.10;;;;;;;10.22;100.00;99365.66;10370826;28;20029;-70
2022/09/26 20:59:37;;;;;;;0.10;0.10;;;;;;;10.20;100.00;99352.53;10353743;28;20128;-71
2022/09/26 21:04:37;;;;;;;0.00;0.00;;;;;;;10.22;100.00;99351.53;10352520;28;20269;-71
2022/09/26 21:09:37;;;;;;;0.07;0.07;;;;;;;10.21;100.00;99353.38;10370903;28;20786;-71
2022/09/26 21:14:38;;;;;;;0.10;0.10;;;;;;;10.21;100.00;99345.38;10369461;28;20096;-70
2022/09/26 21:19:38;;;;;;;0.00;0.00;;;;;;;10.22;100.00;99348.88;10352612;28;20057;-71
2022/09/26 21:24:41;;;;;;;0.00;0.00;;;;;;;10.22;100.00;99344.38;10368757;28;20041;-70
2022/09/26 21:29:42;;;;;;;0.10;0.10;;;;;;;10.22;100.00;99351.53;10369167;28;20350;-71
2022/09/26 21:34:56;;;;;;;0.10;0.10;;;;;;;10.25;100.00;99354.63;10368880;28;20091;-71
2022/09/26 21:39:57;;;;;;;0.10;0.10;;;;;;;10.24;100.00;99339.69;10376079;23;20048;-71
2022/09/26 21:45:02;;;;;;;0.10;0.10;;;;;;;10.25;100.00;99333.34;10331202;28;20018;-73
2022/09/26 21:50:04;;;;;;;0.00;0.00;;;;;;;10.26;100.00;99332.31;10330051;28;20034;-73
2022/09/26 21:55:09;;;;;;;0.10;0.10;;;;;;;10.24;100.00;99326.38;10320346;28;20019;-73
2022/09/26 22:00:11;;;;;;;0.10;0.10;;;;;;;10.26;100.00;99332.31;10312131;28;20025;-73
2022/09/26 22:05:11;;;;;;;0.08;0.08;;;;;;;10.25;100.00;99322.69;10329382;28;20050;-73
2022/09/26 22:10:12;;;;;;;0.10;0.10;;;;;;;10.29;100.00;99317.81;10329795;28;20461;-73
2022/09/26 22:15:12;;;;;;;0.00;0.00;;;;;;;10.29;100.00;99315.97;10344466;28;20303;-73
2022/09/26 22:20:13;;;;;;;0.10;0.10;;;;;;;10.29;100.00;99305.34;10369645;28;20026;-73
2022/09/26 22:25:13;;;;;;;0.05;0.05;;;;;;;10.28;100.00;99308.19;10367908;28;20276;-73
2022/09/26 22:30:14;;;;;;;0.10;0.10;;;;;;;10.27;100.00;99302.06;10328646;28;20022;-73
2022/09/26 22:35:14;;;;;;;0.00;0.00;;;;;;;10.27;100.00;99298.56;10328516;28;20541;-73
2022/09/26 22:40:15;;;;;;;0.10;0.10;;;;;;;10.28;100.00;99290.38;10327974;28;20433;-73
2022/09/26 22:45:15;;;;;;;0.00;0.00;;;;;;;10.27;100.00;99290.56;10329373;28;20022;-73
2022/09/26 22:50:16;;;;;;;0.10;0.10;;;;;;;10.26;100.00;99281.75;10344201;28;20097;-73
2022/09/26 22:55:16;;;;;;;0.00;0.00;;;;;;;10.25;100.00;99282.78;10327234;28;20023;-73
2022/09/26 23:00:17;;;;;;;0.10;0.10;;;;;;;10.22;100.00;99269.84;10327725;28;20679;-73
2022/09/26 23:05:17;;;;;;;0.10;0.10;;;;;;;10.20;100.00;99272.69;10326887;28;20030;-74
2022/09/26 23:10:20;;;;;;;0.10;0.10;;;;;;;10.19;100.00;99255.09;10327446;28;20072;-73
2022/09/26 23:15:21;;;;;;;0.10;0.10;;;;;;;10.18;100.00;99253.47;10326559;28;20033;-73
2022/09/26 23:20:21;;;;;;;0.10;0.10;;;;;;;10.17;100.00;99248.31;10329600;28;20025;-73
2022/09/26 23:25:21;;;;;;;0.00;0.00;;;;;;;10.13;100.00;99236.44;10327412;28;20141;-73
2022/09/26 23:30:22;;;;;;;0.10;0.10;;;;;;;10.10;100.00;99237.66;10327290;28;20387;-73
2022/09/26 23:35:22;;;;;;;0.10;0.10;;;;;;;10.05;100.00;99221.44;10326704;28;20023;-73
2022/09/26 23:40:23;;;;;;;0.00;0.00;;;;;;;10.00;100.00;99223.03;10327586;28;20040;-73
2022/09/26 23:45:24;;;;;;;0.00;0.00;;;;;;;9.98;100.00;99237.38;10326571;28;20042;-73
2022/09/26 23:50:26;;;;;;;0.00;0.00;;;;;;;9.98;100.00;99226.72;10331621;28;20023;-73
2022/09/26 23:55:26;;;;;;;0.10;0.10;;;;;;;9.98;100.00;99221.41;10345048;28;20472;-73
